Time;durP1;ratioP1;P1;durP2;ratioP2;P2;SDS_P1;SDS_P2;PMS_P1;PMS_P2;Temp;Humidity;BMP_temperature;BMP_pressure;BME280_temperature;BME280_humidity;BME280_pressure;Samples;Min_cycle;Max_cycle;Signal;HPM_P1;HPM_P2
2020/12/18 00:02:14;;;;;;;65.10;16.10;;;;;;;;;;5062238;28;20226;-78
2020/12/18 00:04:46;;;;;;;51.77;14.40;;;;;;;;;;5081333;28;20241;-78
2020/12/18 00:07:13;;;;;;;80.37;15.53;;;;;;;;;;5051860;28;20227;-78
2020/12/18 00:09:41;;;;;;;115.83;18.23;;;;;;;;;;5058799;28;20226;-78
2020/12/18 00:12:09;;;;;;;77.00;17.90;;;;;;;;;;5055562;28;20238;-78
2020/12/18 00:14:37;;;;;;;76.73;16.20;;;;;;;;;;5056069;28;20234;-78
2020/12/18 00:17:06;;;;;;;50.00;15.00;;;;;;;;;;5057190;28;20222;-78
2020/12/18 00:19:35;;;;;;;56.37;16.07;;;;;;;;;;5049211;28;20719;-78
2020/12/18 00:22:03;;;;;;;58.97;15.40;;;;;;;;;;5043771;28;20616;-78
2020/12/18 00:24:30;;;;;;;75.00;16.37;;;;;;;;;;5044017;28;20238;-77
2020/12/18 00:26:58;;;;;;;45.13;14.53;;;;;;;;;;5055450;28;20226;-78
2020/12/18 00:29:25;;;;;;;55.30;16.20;;;;;;;;;;5058614;28;20221;-78
2020/12/18 00:31:53;;;;;;;58.97;14.83;;;;;;;;;;5061418;28;20239;-78
2020/12/18 00:34:23;;;;;;;47.57;15.20;;;;;;;;;;5064186;28;20226;-78
2020/12/18 00:36:51;;;;;;;42.40;14.37;;;;;;;;;;5061950;28;20222;-77
2020/12/18 00:39:19;;;;;;;46.70;14.73;;;;;;;;;;5084027;28;20221;-77
2020/12/18 00:41:51;;;;;;;41.73;14.33;;;;;;;;;;5071762;28;20234;-77
2020/12/18 00:44:19;;;;;;;34.13;14.20;;;;;;;;;;5078304;28;20219;-77
2020/12/18 00:46:47;;;;;;;28.87;13.27;;;;;;;;;;5073102;28;20215;-78
2020/12/18 00:49:15;;;;;;;37.60;13.53;;;;;;;;;;5084088;28;20234;-78
2020/12/18 00:51:43;;;;;;;31.90;13.70;;;;;;;;;;5078474;28;20234;-78
2020/12/18 00:54:11;;;;;;;34.20;13.77;;;;;;;;;;5052025;28;20250;-78
2020/12/18 00:56:43;;;;;;;33.53;14.00;;;;;;;;;;5056543;28;20237;-78
2020/12/18 00:59:11;;;;;;;29.60;12.93;;;;;;;;;;5068838;28;20234;-78
2020/12/18 01:01:39;;;;;;;29.13;12.50;;;;;;;;;;5045678;28;20227;-78
2020/12/18 01:04:07;;;;;;;22.57;11.27;;;;;;;;;;5044104;28;20721;-78
2020/12/18 01:06:35;;;;;;;24.33;11.40;;;;;;;;;;5053216;28;20230;-78
2020/12/18 01:09:04;;;;;;;21.93;11.00;;;;;;;;;;5038847;28;20219;-78
2020/12/18 01:11:38;;;;;;;21.67;11.33;;;;;;;;;;5033343;28;20227;-78
2020/12/18 01:14:09;;;;;;;22.27;11.13;;;;;;;;;;5055519;28;20230;-78
2020/12/18 01:16:49;;;;;;;20.27;10.93;;;;;;;;;;5037926;28;20589;-78
2020/12/18 01:19:17;;;;;;;21.63;11.30;;;;;;;;;;5037889;28;20249;-78
2020/12/18 01:21:46;;;;;;;20.80;11.47;;;;;;;;;;5036953;28;20229;-77
2020/12/18 01:24:19;;;;;;;23.97;11.43;;;;;;;;;;5054585;28;20719;-78
2020/12/18 01:26:51;;;;;;;20.87;12.20;;;;;;;;;;5042772;28;20218;-78
2020/12/18 01:29:19;;;;;;;20.27;10.43;;;;;;;;;;5045238;28;20621;-78
2020/12/18 01:31:49;;;;;;;22.30;10.50;;;;;;;;;;5065297;28;20234;-77
2020/12/18 01:34:17;;;;;;;21.03;10.90;;;;;;;;;;5057153;28;20523;-78
2020/12/18 01:36:45;;;;;;;21.33;11.57;;;;;;;;;;5044699;28;20706;-78
2020/12/18 01:39:26;;;;;;;25.23;11.20;;;;;;;;;;5046494;28;20229;-77
2020/12/18 01:41:55;;;;;;;22.00;10.43;;;;;;;;;;5057497;28;20234;-78
2020/12/18 01:44:23;;;;;;;21.37;11.27;;;;;;;;;;5065274;28;20226;-78
2020/12/18 01:46:56;;;;;;;17.43;10.73;;;;;;;;;;5054462;28;20240;-80
2020/12/18 01:49:24;;;;;;;19.63;9.53;;;;;;;;;;5043269;28;20692;-78
2020/12/18 01:51:54;;;;;;;16.53;9.40;;;;;;;;;;5044703;28;20230;-77
2020/12/18 01:54:52;;;;;;;18.13;10.03;;;;;;;;;;5067038;28;20227;-78
2020/12/18 01:57:20;;;;;;;19.67;10.40;;;;;;;;;;5061806;28;20227;-78
2020/12/18 01:59:58;;;;;;;18.37;10.33;;;;;;;;;;5058396;28;20230;-78
2020/12/18 02:02:42;;;;;;;16.10;10.00;;;;;;;;;;5052234;28;20235;-78
2020/12/18 02:05:28;;;;;;;15.30;8.70;;;;;;;;;;5043059;28;20226;-78
2020/12/18 02:08:02;;;;;;;15.83;9.60;;;;;;;;;;5073382;28;20223;-78
2020/12/18 02:11:03;;;;;;;18.43;10.03;;;;;;;;;;5033941;28;20352;-78
2020/12/18 02:13:33;;;;;;;16.87;9.20;;;;;;;;;;5063394;28;20234;-78
2020/12/18 02:16:01;;;;;;;16.03;9.73;;;;;;;;;;5061296;28;20238;-78
2020/12/18 02:18:35;;;;;;;15.83;8.63;;;;;;;;;;5039464;28;20600;-78
2020/12/18 02:21:04;;;;;;;15.13;9.00;;;;;;;;;;5045575;28;20752;-78
2020/12/18 02:23:38;;;;;;;16.07;8.67;;;;;;;;;;5056574;28;20226;-78
2020/12/18 02:26:08;;;;;;;13.87;8.53;;;;;;;;;;5040589;28;20231;-78
2020/12/18 02:28:41;;;;;;;15.73;9.50;;;;;;;;;;5062367;28;20239;-78
2020/12/18 02:31:10;;;;;;;17.47;9.03;;;;;;;;;;5060913;28;20623;-78
2020/12/18 02:33:42;;;;;;;17.97;9.47;;;;;;;;;;5047799;28;20231;-78
2020/12/18 02:36:25;;;;;;;17.00;9.57;;;;;;;;;;5061765;28;20241;-78
2020/12/18 02:39:00;;;;;;;17.63;9.50;;;;;;;;;;5060845;28;20223;-78
2020/12/18 02:41:30;;;;;;;17.60;10.07;;;;;;;;;;5053997;28;20307;-78
2020/12/18 02:44:03;;;;;;;19.93;9.73;;;;;;;;;;5058534;28;20226;-78
2020/12/18 02:46:33;;;;;;;17.63;8.73;;;;;;;;;;5045242;28;20885;-78
2020/12/18 02:49:01;;;;;;;14.60;8.97;;;;;;;;;;5058994;28;20586;-78
2020/12/18 02:51:44;;;;;;;18.23;9.43;;;;;;;;;;5061737;28;20227;-78
2020/12/18 02:54:38;;;;;;;17.97;9.70;;;;;;;;;;5048187;28;20239;-78
2020/12/18 02:57:29;;;;;;;18.30;9.27;;;;;;;;;;5024837;28;20211;-77
2020/12/18 03:00:07;;;;;;;15.10;8.80;;;;;;;;;;5061336;28;20263;-78
2020/12/18 03:02:38;;;;;;;19.17;10.13;;;;;;;;;;5046297;28;20593;-78
2020/12/18 03:05:08;;;;;;;18.70;9.63;;;;;;;;;;5061486;28;20229;-78
2020/12/18 03:08:01;;;;;;;15.20;9.17;;;;;;;;;;5043983;28;20231;-78
2020/12/18 03:10:29;;;;;;;18.80;9.83;;;;;;;;;;5043494;28;20728;-78
2020/12/18 03:12:59;;;;;;;15.50;9.53;;;;;;;;;;5057451;28;20608;-77
2020/12/18 03:15:27;;;;;;;17.80;9.17;;;;;;;;;;5062569;28;20234;-77
2020/12/18 03:18:17;;;;;;;15.33;8.67;;;;;;;;;;5050167;28;20222;-77
2020/12/18 03:20:47;;;;;;;14.53;8.17;;;;;;;;;;5043813;28;20595;-77
2020/12/18 03:23:45;;;;;;;14.30;8.37;;;;;;;;;;5059184;28;20230;-77
2020/12/18 03:26:36;;;;;;;16.20;8.30;;;;;;;;;;5030282;28;20223;-77
2020/12/18 03:29:14;;;;;;;14.47;8.50;;;;;;;;;;5043159;28;20233;-77
2020/12/18 03:31:41;;;;;;;14.13;8.50;;;;;;;;;;5043593;28;20239;-77
2020/12/18 03:34:09;;;;;;;14.37;7.77;;;;;;;;;;5041758;28;20227;-78
2020/12/18 03:36:46;;;;;;;16.03;8.93;;;;;;;;;;5066518;28;20233;-77
2020/12/18 03:39:13;;;;;;;17.80;9.03;;;;;;;;;;5058358;28;20237;-77
2020/12/18 03:41:58;;;;;;;15.17;8.30;;;;;;;;;;5047607;28;20223;-78
2020/12/18 03:44:27;;;;;;;13.07;8.00;;;;;;;;;;5055948;28;20223;-77
2020/12/18 03:46:54;;;;;;;12.20;7.37;;;;;;;;;;5040336;28;20262;-77
2020/12/18 03:49:41;;;;;;;13.30;7.70;;;;;;;;;;5073464;28;20234;-78
2020/12/18 03:52:09;;;;;;;12.53;7.80;;;;;;;;;;5062458;28;20582;-77
2020/12/18 03:54:42;;;;;;;15.03;8.07;;;;;;;;;;5044665;28;20230;-77
2020/12/18 03:57:45;;;;;;;13.93;8.73;;;;;;;;;;5052846;28;20246;-77
2020/12/18 04:00:25;;;;;;;34.30;12.10;;;;;;;;;;5070793;28;20245;-78
2020/12/18 04:03:05;;;;;;;25.93;9.63;;;;;;;;;;5044134;28;20230;-77
2020/12/18 04:05:34;;;;;;;34.03;11.67;;;;;;;;;;5046048;28;20257;-78
2020/12/18 04:08:06;;;;;;;44.90;13.10;;;;;;;;;;5042323;28;20704;-77
2020/12/18 04:10:52;;;;;;;33.93;10.90;;;;;;;;;;5056943;28;20230;-77
2020/12/18 04:13:40;;;;;;;46.67;11.87;;;;;;;;;;5056684;28;20230;-77
2020/12/18 04:16:10;;;;;;;55.67;13.10;;;;;;;;;;5048283;28;20219;-77
2020/12/18 04:18:38;;;;;;;128.60;17.53;;;;;;;;;;5058503;28;20230;-77
2020/12/18 04:21:09;;;;;;;55.77;13.27;;;;;;;;;;5048831;28;20223;-77
2020/12/18 04:23:43;;;;;;;71.30;15.13;;;;;;;;;;5044979;28;20245;-77
2020/12/18 04:26:34;;;;;;;48.17;13.23;;;;;;;;;;5057861;28;20223;-77
2020/12/18 04:29:04;;;;;;;35.27;12.63;;;;;;;;;;5057070;28;20232;-77
2020/12/18 04:31:34;;;;;;;26.83;12.00;;;;;;;;;;5039784;28;20681;-78
2020/12/18 04:34:01;;;;;;;20.10;9.87;;;;;;;;;;5043563;28;20573;-77
2020/12/18 04:36:45;;;;;;;19.97;10.70;;;;;;;;;;5058199;28;20231;-78
2020/12/18 04:39:15;;;;;;;16.37;9.40;;;;;;;;;;5068419;28;20226;-77
2020/12/18 04:41:45;;;;;;;17.70;9.60;;;;;;;;;;5083285;28;20227;-77
2020/12/18 04:44:17;;;;;;;22.70;12.33;;;;;;;;;;5063781;28;20227;-77
2020/12/18 04:46:55;;;;;;;20.57;10.30;;;;;;;;;;5083531;28;20234;-77
2020/12/18 04:49:23;;;;;;;19.23;10.17;;;;;;;;;;5074041;28;20230;-77
2020/12/18 04:52:09;;;;;;;18.83;9.00;;;;;;;;;;5037071;28;20253;-77
2020/12/18 04:54:46;;;;;;;16.23;9.70;;;;;;;;;;5077836;28;20223;-77
2020/12/18 04:57:35;;;;;;;19.77;9.53;;;;;;;;;;5068390;28;20238;-77
2020/12/18 05:00:08;;;;;;;15.90;8.93;;;;;;;;;;5043218;28;20223;-78
2020/12/18 05:02:55;;;;;;;20.17;8.83;;;;;;;;;;5060564;28;20237;-77
2020/12/18 05:05:23;;;;;;;17.33;9.80;;;;;;;;;;5046823;28;20604;-77
2020/12/18 05:07:59;;;;;;;19.90;10.33;;;;;;;;;;5062807;28;20265;-77
2020/12/18 05:10:27;;;;;;;83.17;12.87;;;;;;;;;;5057555;28;20233;-77
2020/12/18 05:13:07;;;;;;;19.20;10.37;;;;;;;;;;5042691;28;20242;-78
2020/12/18 05:15:46;;;;;;;131.67;14.83;;;;;;;;;;5044303;28;20246;-78
2020/12/18 05:18:35;;;;;;;40.60;11.77;;;;;;;;;;5049873;28;20230;-77
2020/12/18 05:21:15;;;;;;;83.47;14.63;;;;;;;;;;5039012;28;20231;-77
2020/12/18 05:24:01;;;;;;;54.60;13.63;;;;;;;;;;5087929;28;20223;-77
2020/12/18 05:26:37;;;;;;;54.83;12.60;;;;;;;;;;5085773;28;20206;-77
2020/12/18 05:29:08;;;;;;;38.03;13.17;;;;;;;;;;5087531;28;20236;-77
2020/12/18 05:31:56;;;;;;;52.83;14.13;;;;;;;;;;5080477;28;20596;-77
2020/12/18 05:34:51;;;;;;;91.27;14.03;;;;;;;;;;5078625;28;20443;-77
2020/12/18 05:37:38;;;;;;;29.37;11.50;;;;;;;;;;5077452;28;20222;-78
2020/12/18 05:40:25;;;;;;;58.80;13.53;;;;;;;;;;5035041;28;20226;-77
2020/12/18 05:43:22;;;;;;;56.97;12.13;;;;;;;;;;5045388;28;20222;-78
2020/12/18 05:46:22;;;;;;;50.37;12.47;;;;;;;;;;5042672;28;20222;-77
2020/12/18 05:48:59;;;;;;;44.47;12.33;;;;;;;;;;5042298;28;20231;-77
2020/12/18 05:51:32;;;;;;;124.50;14.77;;;;;;;;;;5059139;28;20701;-77
2020/12/18 05:54:21;;;;;;;62.23;12.83;;;;;;;;;;5060209;28;20235;-77
2020/12/18 05:56:58;;;;;;;132.13;16.30;;;;;;;;;;5047989;28;20233;-77
2020/12/18 05:59:27;;;;;;;95.13;14.20;;;;;;;;;;5045445;28;20587;-77
2020/12/18 06:02:03;;;;;;;72.17;12.13;;;;;;;;;;5053899;28;20729;-78
2020/12/18 06:04:33;;;;;;;33.37;10.40;;;;;;;;;;5065223;28;20222;-77
2020/12/18 06:07:06;;;;;;;128.83;16.63;;;;;;;;;;5043435;28;20230;-78
2020/12/18 06:10:03;;;;;;;140.93;16.23;;;;;;;;;;5040018;28;20220;-77
2020/12/18 06:13:00;;;;;;;92.57;12.77;;;;;;;;;;5059259;28;20231;-78
2020/12/18 06:15:36;;;;;;;30.00;11.23;;;;;;;;;;5063592;28;20230;-76
2020/12/18 06:18:06;;;;;;;25.30;10.40;;;;;;;;;;5058605;28;20230;-80
2020/12/18 06:20:35;;;;;;;54.87;10.90;;;;;;;;;;5037230;28;20222;-79
2020/12/18 06:23:06;;;;;;;75.20;13.53;;;;;;;;;;5040880;28;20238;-79
2020/12/18 06:25:54;;;;;;;51.97;11.43;;;;;;;;;;5061527;28;20232;-79
2020/12/18 06:28:36;;;;;;;62.73;13.10;;;;;;;;;;5043859;28;20592;-79
2020/12/18 06:31:25;;;;;;;56.07;11.97;;;;;;;;;;5061372;28;20598;-79
2020/12/18 06:34:27;;;;;;;50.43;11.07;;;;;;;;;;5044188;28;20600;-79
2020/12/18 06:37:31;;;;;;;40.80;11.57;;;;;;;;;;5052618;28;20244;-79
2020/12/18 06:40:27;;;;;;;45.57;11.40;;;;;;;;;;5058080;28;20713;-79
2020/12/18 06:43:35;;;;;;;32.80;9.80;;;;;;;;;;5058069;28;20242;-79
2020/12/18 06:46:20;;;;;;;53.90;12.07;;;;;;;;;;5062798;28;20221;-79
2020/12/18 06:49:17;;;;;;;27.77;9.13;;;;;;;;;;5078152;28;20789;-79
2020/12/18 06:52:08;;;;;;;17.53;9.20;;;;;;;;;;5048718;28;20235;-79
2020/12/18 06:54:58;;;;;;;16.50;8.77;;;;;;;;;;5042278;28;20234;-78
2020/12/18 06:58:19;;;;;;;30.67;9.30;;;;;;;;;;5068097;28;20237;-79
2020/12/18 07:00:52;;;;;;;20.60;8.40;;;;;;;;;;5047049;28;20700;-78
2020/12/18 07:03:36;;;;;;;33.97;9.60;;;;;;;;;;5051493;28;20227;-78
2020/12/18 07:06:05;;;;;;;29.53;9.40;;;;;;;;;;5069391;28;20220;-79
2020/12/18 07:08:34;;;;;;;28.80;10.00;;;;;;;;;;5054736;28;20227;-79
2020/12/18 07:11:04;;;;;;;46.67;9.90;;;;;;;;;;5061049;28;20609;-79
2020/12/18 07:13:33;;;;;;;34.60;9.10;;;;;;;;;;5049311;28;20233;-79
2020/12/18 07:16:19;;;;;;;29.10;9.47;;;;;;;;;;5041083;28;20234;-79
2020/12/18 07:18:48;;;;;;;18.63;8.53;;;;;;;;;;5034251;28;20305;-79
2020/12/18 07:21:17;;;;;;;18.90;9.60;;;;;;;;;;5053082;28;20218;-79
2020/12/18 07:23:46;;;;;;;35.73;9.90;;;;;;;;;;5038744;28;20235;-79
2020/12/18 07:26:15;;;;;;;39.73;10.70;;;;;;;;;;5045986;28;20688;-79
2020/12/18 07:28:44;;;;;;;39.70;9.83;;;;;;;;;;5051808;28;20227;-79
2020/12/18 07:31:17;;;;;;;32.43;9.33;;;;;;;;;;5060368;28;20227;-79
2020/12/18 07:33:45;;;;;;;80.73;12.27;;;;;;;;;;5070804;28;20830;-79
2020/12/18 07:36:13;;;;;;;47.57;11.37;;;;;;;;;;5037911;28;20229;-79
2020/12/18 07:38:42;;;;;;;57.77;10.33;;;;;;;;;;5044717;28;20229;-78
2020/12/18 07:41:14;;;;;;;27.63;9.13;;;;;;;;;;5050506;28;20757;-78
2020/12/18 07:43:45;;;;;;;40.10;10.33;;;;;;;;;;5053028;28;20211;-78
2020/12/18 07:46:16;;;;;;;41.60;9.13;;;;;;;;;;5056468;28;20260;-78
2020/12/18 07:48:45;;;;;;;41.17;10.23;;;;;;;;;;5061318;28;20219;-79
2020/12/18 07:51:16;;;;;;;48.47;11.13;;;;;;;;;;5068062;28;20237;-78
2020/12/18 07:53:43;;;;;;;58.63;11.13;;;;;;;;;;5084825;28;20216;-78
2020/12/18 07:56:12;;;;;;;64.10;11.40;;;;;;;;;;5082911;28;20217;-78
2020/12/18 07:58:49;;;;;;;45.73;11.47;;;;;;;;;;5080761;28;20227;-78
2020/12/18 08:01:18;;;;;;;60.53;11.97;;;;;;;;;;5061935;28;20603;-78
2020/12/18 08:03:48;;;;;;;64.93;11.90;;;;;;;;;;5041557;28;20229;-80
2020/12/18 08:06:18;;;;;;;55.70;11.60;;;;;;;;;;5048263;28;20581;-79
2020/12/18 08:08:54;;;;;;;56.87;10.97;;;;;;;;;;5055451;28;20234;-77
2020/12/18 08:11:23;;;;;;;37.23;11.10;;;;;;;;;;5060746;28;20233;-79
2020/12/18 08:13:51;;;;;;;85.87;12.33;;;;;;;;;;5064675;28;20242;-77
2020/12/18 08:16:20;;;;;;;54.57;12.10;;;;;;;;;;5075050;28;20234;-77
2020/12/18 08:18:50;;;;;;;45.37;11.03;;;;;;;;;;5066501;28;20227;-77
2020/12/18 08:21:23;;;;;;;60.53;11.53;;;;;;;;;;5059123;28;20224;-78
2020/12/18 08:24:00;;;;;;;55.03;10.87;;;;;;;;;;5067060;28;20231;-77
2020/12/18 08:26:30;;;;;;;80.40;12.57;;;;;;;;;;5057853;28;20230;-79
2020/12/18 08:28:58;;;;;;;59.93;11.10;;;;;;;;;;5067902;28;20223;-77
2020/12/18 08:31:27;;;;;;;66.97;12.73;;;;;;;;;;5048548;28;20700;-77
2020/12/18 08:33:55;;;;;;;57.20;11.00;;;;;;;;;;5068155;28;20235;-77
2020/12/18 08:36:23;;;;;;;68.73;13.03;;;;;;;;;;5065412;28;20238;-77
2020/12/18 08:39:03;;;;;;;78.70;13.50;;;;;;;;;;5051017;28;20222;-77
2020/12/18 08:41:46;;;;;;;77.27;12.50;;;;;;;;;;5074277;28;20218;-77
2020/12/18 08:44:16;;;;;;;78.53;12.17;;;;;;;;;;5070352;28;20225;-78
2020/12/18 08:46:44;;;;;;;94.20;14.27;;;;;;;;;;5065029;28;20227;-77
2020/12/18 08:49:23;;;;;;;79.63;12.13;;;;;;;;;;5050398;28;20230;-77
2020/12/18 08:51:52;;;;;;;66.60;12.17;;;;;;;;;;5057767;28;20700;-77
2020/12/18 08:54:28;;;;;;;52.17;10.90;;;;;;;;;;5067708;28;20225;-77
2020/12/18 08:57:15;;;;;;;34.60;12.10;;;;;;;;;;5057119;28;20525;-77
2020/12/18 09:00:04;;;;;;;49.80;11.83;;;;;;;;;;5039213;28;20231;-77
2020/12/18 09:02:33;;;;;;;61.10;12.93;;;;;;;;;;5064553;28;20220;-77
2020/12/18 09:05:17;;;;;;;85.43;13.87;;;;;;;;;;5042463;28;20227;-77
2020/12/18 09:07:51;;;;;;;57.20;12.67;;;;;;;;;;5034696;28;20302;-77
2020/12/18 09:10:34;;;;;;;28.30;11.83;;;;;;;;;;5063485;28;20235;-77
2020/12/18 09:13:09;;;;;;;33.50;12.50;;;;;;;;;;5083555;28;20238;-77
2020/12/18 09:15:38;;;;;;;24.27;11.77;;;;;;;;;;5035418;28;20245;-77
2020/12/18 09:18:07;;;;;;;29.53;12.43;;;;;;;;;;5058072;28;20238;-78
2020/12/18 09:20:36;;;;;;;18.93;10.37;;;;;;;;;;5065174;28;20229;-77
2020/12/18 09:23:06;;;;;;;19.30;10.53;;;;;;;;;;5057890;28;20228;-77
2020/12/18 09:25:37;;;;;;;19.93;10.07;;;;;;;;;;5060737;28;20233;-77
2020/12/18 09:28:05;;;;;;;23.20;11.60;;;;;;;;;;5066191;28;20246;-78
2020/12/18 09:30:32;;;;;;;18.50;10.33;;;;;;;;;;5058723;28;20700;-78
2020/12/18 09:33:35;;;;;;;17.60;10.10;;;;;;;;;;5049602;28;20222;-77
2020/12/18 09:36:08;;;;;;;24.17;11.27;;;;;;;;;;5063556;28;20230;-78
2020/12/18 09:38:37;;;;;;;24.27;12.30;;;;;;;;;;5051066;28;20579;-78
2020/12/18 09:41:08;;;;;;;25.80;14.17;;;;;;;;;;5070302;28;20221;-77
2020/12/18 09:43:36;;;;;;;26.23;13.87;;;;;;;;;;5051162;28;20223;-78
2020/12/18 09:46:05;;;;;;;28.77;13.33;;;;;;;;;;5063847;28;20223;-78
2020/12/18 09:48:34;;;;;;;27.17;13.90;;;;;;;;;;5043374;28;20234;-78
2020/12/18 09:51:01;;;;;;;23.63;13.77;;;;;;;;;;5049125;28;20314;-78
2020/12/18 09:53:29;;;;;;;28.23;14.17;;;;;;;;;;5082939;28;20223;-77
2020/12/18 09:55:57;;;;;;;27.17;15.03;;;;;;;;;;5072911;28;20230;-78
2020/12/18 09:58:25;;;;;;;29.63;15.53;;;;;;;;;;5061452;28;20230;-78
2020/12/18 10:00:53;;;;;;;33.83;16.00;;;;;;;;;;5066027;28;20226;-78
2020/12/18 10:03:21;;;;;;;33.10;15.43;;;;;;;;;;5050459;28;20237;-78
2020/12/18 10:05:49;;;;;;;27.30;15.13;;;;;;;;;;5044633;28;20709;-78
2020/12/18 10:08:18;;;;;;;32.37;15.90;;;;;;;;;;5066498;28;20222;-78
2020/12/18 10:10:46;;;;;;;29.87;15.13;;;;;;;;;;5046183;28;20220;-78
2020/12/18 10:13:14;;;;;;;27.00;14.20;;;;;;;;;;5029616;28;20238;-79
2020/12/18 10:15:42;;;;;;;25.57;14.90;;;;;;;;;;5046950;28;20222;-78
2020/12/18 10:18:10;;;;;;;30.50;14.70;;;;;;;;;;5043885;28;20245;-78
2020/12/18 10:20:38;;;;;;;31.00;14.77;;;;;;;;;;5042585;28;20227;-78
2020/12/18 10:23:06;;;;;;;31.87;15.23;;;;;;;;;;5059519;28;20227;-78
2020/12/18 10:25:34;;;;;;;30.03;15.40;;;;;;;;;;5058965;28;20222;-78
2020/12/18 10:28:02;;;;;;;28.17;14.47;;;;;;;;;;5062213;28;20223;-79
2020/12/18 10:30:31;;;;;;;32.43;15.70;;;;;;;;;;5066812;28;20227;-79
2020/12/18 10:32:59;;;;;;;31.00;15.63;;;;;;;;;;5053013;28;20222;-78
2020/12/18 10:35:27;;;;;;;28.63;15.27;;;;;;;;;;5048190;28;20222;-78
2020/12/18 10:37:56;;;;;;;27.53;14.30;;;;;;;;;;5060981;28;20234;-78
2020/12/18 10:40:26;;;;;;;24.33;13.60;;;;;;;;;;5062812;28;20603;-79
2020/12/18 10:42:54;;;;;;;26.97;13.20;;;;;;;;;;5045279;28;20235;-78
2020/12/18 10:45:22;;;;;;;25.20;12.93;;;;;;;;;;5045101;28;20237;-78
2020/12/18 10:47:50;;;;;;;26.07;13.23;;;;;;;;;;5063577;28;20710;-78
2020/12/18 10:50:17;;;;;;;23.70;13.47;;;;;;;;;;5069134;28;20230;-78
2020/12/18 10:52:48;;;;;;;25.73;12.80;;;;;;;;;;5050958;28;20712;-78
2020/12/18 10:55:15;;;;;;;22.70;11.57;;;;;;;;;;5073016;28;20304;-78
2020/12/18 10:57:45;;;;;;;28.87;12.87;;;;;;;;;;5058159;28;20837;-78
2020/12/18 11:00:13;;;;;;;19.63;11.77;;;;;;;;;;5028819;28;20600;-78
2020/12/18 11:02:41;;;;;;;21.63;11.80;;;;;;;;;;5060665;28;20234;-78
2020/12/18 11:05:09;;;;;;;25.83;13.03;;;;;;;;;;5039589;28;20249;-78
2020/12/18 11:07:37;;;;;;;25.43;12.57;;;;;;;;;;5061464;28;20234;-78
2020/12/18 11:10:05;;;;;;;19.17;11.57;;;;;;;;;;5032231;28;20227;-78
2020/12/18 11:12:33;;;;;;;26.63;12.43;;;;;;;;;;5054542;28;20234;-78
2020/12/18 11:15:02;;;;;;;20.20;11.83;;;;;;;;;;5063547;28;20246;-78
2020/12/18 11:17:30;;;;;;;22.93;11.97;;;;;;;;;;5061675;28;20237;-80
2020/12/18 11:19:57;;;;;;;18.40;10.60;;;;;;;;;;5051877;28;20230;-78
2020/12/18 11:22:27;;;;;;;19.27;11.87;;;;;;;;;;5038162;28;20242;-78
2020/12/18 11:24:55;;;;;;;21.13;11.40;;;;;;;;;;5064793;28;20229;-78
2020/12/18 11:27:24;;;;;;;23.17;11.70;;;;;;;;;;5058606;28;20223;-78
2020/12/18 11:29:52;;;;;;;20.80;12.33;;;;;;;;;;5055565;28;20227;-78
2020/12/18 11:32:21;;;;;;;21.67;12.30;;;;;;;;;;5065381;28;20231;-78
2020/12/18 11:34:48;;;;;;;22.53;12.13;;;;;;;;;;5069637;28;20245;-78
2020/12/18 11:37:16;;;;;;;25.57;12.90;;;;;;;;;;5060659;28;20231;-78
2020/12/18 11:39:44;;;;;;;23.27;12.73;;;;;;;;;;5074158;28;20223;-78
2020/12/18 11:42:12;;;;;;;21.47;12.70;;;;;;;;;;5086589;28;20736;-78
2020/12/18 11:44:39;;;;;;;20.47;11.97;;;;;;;;;;5050701;28;20223;-78
2020/12/18 11:47:07;;;;;;;20.37;11.70;;;;;;;;;;5060955;28;20237;-78
2020/12/18 11:49:37;;;;;;;25.60;13.00;;;;;;;;;;5064105;28;20227;-78
2020/12/18 11:52:04;;;;;;;23.10;13.30;;;;;;;;;;5056167;28;20227;-78
2020/12/18 11:54:32;;;;;;;19.63;11.40;;;;;;;;;;5067551;28;20604;-78
2020/12/18 11:57:00;;;;;;;20.37;12.27;;;;;;;;;;5065931;28;20445;-78
2020/12/18 11:59:28;;;;;;;20.10;11.53;;;;;;;;;;5063254;28;20511;-78
2020/12/18 12:01:55;;;;;;;17.93;11.33;;;;;;;;;;5067177;28;20257;-78
2020/12/18 12:04:23;;;;;;;23.17;14.27;;;;;;;;;;5067094;28;20262;-79
2020/12/18 12:06:52;;;;;;;21.50;11.97;;;;;;;;;;5053165;28;20226;-78
2020/12/18 12:09:21;;;;;;;20.97;12.03;;;;;;;;;;5065222;28;20581;-78
2020/12/18 12:11:49;;;;;;;22.53;12.43;;;;;;;;;;5063288;28;20237;-78
2020/12/18 12:14:17;;;;;;;37.00;13.03;;;;;;;;;;5057190;28;20230;-78
2020/12/18 12:16:47;;;;;;;19.80;11.70;;;;;;;;;;5043492;28;20233;-79
2020/12/18 12:19:16;;;;;;;25.90;12.87;;;;;;;;;;5040866;28;20238;-79
2020/12/18 12:21:43;;;;;;;17.63;11.07;;;;;;;;;;5041753;28;20239;-77
2020/12/18 12:24:12;;;;;;;19.80;11.23;;;;;;;;;;5052787;28;20218;-77
2020/12/18 12:26:39;;;;;;;18.27;11.47;;;;;;;;;;5050452;28;20235;-78
2020/12/18 12:29:07;;;;;;;20.23;11.37;;;;;;;;;;5054710;28;20286;-77
2020/12/18 12:31:35;;;;;;;23.47;11.47;;;;;;;;;;5071994;28;20270;-77
2020/12/18 12:34:02;;;;;;;21.10;11.17;;;;;;;;;;5071348;28;20221;-78
2020/12/18 12:36:30;;;;;;;19.03;10.80;;;;;;;;;;5080136;28;20210;-77
2020/12/18 12:38:58;;;;;;;19.37;11.50;;;;;;;;;;5048847;28;20235;-78
2020/12/18 12:41:26;;;;;;;19.70;10.90;;;;;;;;;;5048825;28;20318;-78
2020/12/18 12:43:54;;;;;;;17.73;11.00;;;;;;;;;;5040050;28;20243;-78
2020/12/18 12:46:21;;;;;;;19.07;10.90;;;;;;;;;;5075213;28;20245;-78
2020/12/18 12:48:49;;;;;;;24.13;11.47;;;;;;;;;;5073248;28;20241;-78
2020/12/18 12:51:17;;;;;;;18.23;10.87;;;;;;;;;;5076133;28;20226;-78
2020/12/18 12:53:44;;;;;;;20.27;11.47;;;;;;;;;;5053641;28;20224;-78
2020/12/18 12:56:16;;;;;;;16.30;10.80;;;;;;;;;;5074370;28;20257;-78
2020/12/18 12:58:44;;;;;;;19.53;12.03;;;;;;;;;;5074750;28;20230;-78
2020/12/18 13:01:12;;;;;;;16.93;11.43;;;;;;;;;;5075788;28;20226;-78
2020/12/18 13:03:39;;;;;;;18.43;11.37;;;;;;;;;;5082732;28;20241;-77
2020/12/18 13:06:07;;;;;;;16.43;10.67;;;;;;;;;;5074456;28;20230;-80
2020/12/18 13:08:35;;;;;;;21.10;12.03;;;;;;;;;;5074472;28;20226;-78
2020/12/18 13:11:03;;;;;;;20.83;12.53;;;;;;;;;;5061084;28;20604;-78
2020/12/18 13:13:30;;;;;;;20.27;12.23;;;;;;;;;;5070844;28;20250;-78
2020/12/18 13:16:00;;;;;;;17.43;11.53;;;;;;;;;;5068997;28;20234;-78
2020/12/18 13:18:27;;;;;;;20.70;11.70;;;;;;;;;;5059227;28;20235;-78
2020/12/18 13:20:55;;;;;;;16.97;10.40;;;;;;;;;;5061545;28;20701;-78
2020/12/18 13:23:23;;;;;;;18.00;11.40;;;;;;;;;;5060216;28;20222;-78
2020/12/18 13:25:51;;;;;;;20.70;11.90;;;;;;;;;;5060475;28;20235;-78
2020/12/18 13:28:27;;;;;;;19.83;11.90;;;;;;;;;;5052190;28;20222;-78
2020/12/18 13:30:57;;;;;;;20.97;12.30;;;;;;;;;;5057829;28;20219;-78
2020/12/18 13:33:25;;;;;;;19.50;11.70;;;;;;;;;;5042077;28;20618;-78
2020/12/18 13:35:53;;;;;;;22.17;12.70;;;;;;;;;;5061569;28;20226;-79
2020/12/18 13:38:21;;;;;;;21.43;12.70;;;;;;;;;;5062148;28;20237;-78
2020/12/18 13:40:49;;;;;;;24.70;13.67;;;;;;;;;;5070760;28;20240;-78
2020/12/18 13:43:16;;;;;;;19.67;12.50;;;;;;;;;;5078325;28;20237;-78
2020/12/18 13:45:44;;;;;;;19.70;12.63;;;;;;;;;;5051332;28;20726;-78
2020/12/18 13:48:12;;;;;;;19.73;11.83;;;;;;;;;;5046148;28;20234;-78
2020/12/18 13:50:41;;;;;;;20.30;13.00;;;;;;;;;;5056636;28;20234;-79
2020/12/18 13:53:09;;;;;;;24.77;14.70;;;;;;;;;;5082544;28;20226;-78
2020/12/18 13:55:37;;;;;;;19.87;13.30;;;;;;;;;;5071252;28;20204;-78
2020/12/18 13:58:04;;;;;;;20.03;12.97;;;;;;;;;;5056930;28;20515;-77
2020/12/18 14:00:33;;;;;;;19.27;11.97;;;;;;;;;;5060940;28;20237;-77
2020/12/18 14:03:01;;;;;;;18.07;12.33;;;;;;;;;;5078834;28;20229;-78
2020/12/18 14:05:29;;;;;;;20.63;12.50;;;;;;;;;;5068278;28;20505;-78
2020/12/18 14:07:57;;;;;;;17.73;12.10;;;;;;;;;;5074264;28;20708;-79
2020/12/18 14:10:25;;;;;;;17.73;11.77;;;;;;;;;;5065727;28;20222;-78
2020/12/18 14:12:52;;;;;;;17.47;11.47;;;;;;;;;;5056588;28;20239;-78
2020/12/18 14:15:21;;;;;;;23.80;12.20;;;;;;;;;;5069294;28;20622;-78
2020/12/18 14:17:49;;;;;;;20.27;12.50;;;;;;;;;;5072057;28;20532;-77
2020/12/18 14:20:18;;;;;;;18.57;12.40;;;;;;;;;;5059618;28;20227;-78
2020/12/18 14:22:50;;;;;;;19.27;12.57;;;;;;;;;;5058469;28;20238;-77
2020/12/18 14:25:19;;;;;;;20.20;12.03;;;;;;;;;;5070893;28;20601;-77
2020/12/18 14:27:47;;;;;;;21.93;12.67;;;;;;;;;;5052687;28;20231;-77
2020/12/18 14:30:14;;;;;;;21.87;12.07;;;;;;;;;;5045463;28;20237;-78
2020/12/18 14:32:42;;;;;;;18.50;11.67;;;;;;;;;;5063210;28;20235;-77
2020/12/18 14:35:11;;;;;;;18.00;10.97;;;;;;;;;;5059374;28;20234;-78
2020/12/18 14:37:38;;;;;;;20.23;12.37;;;;;;;;;;5068837;28;20238;-77
2020/12/18 14:40:06;;;;;;;19.40;12.00;;;;;;;;;;5065703;28;20693;-78
2020/12/18 14:42:35;;;;;;;21.33;12.83;;;;;;;;;;5040980;28;20226;-77
2020/12/18 14:45:03;;;;;;;20.77;11.53;;;;;;;;;;5063504;28;20595;-77
2020/12/18 14:47:30;;;;;;;21.13;11.87;;;;;;;;;;5054386;28;20251;-77
2020/12/18 14:49:58;;;;;;;22.13;13.13;;;;;;;;;;5081413;28;20219;-77
2020/12/18 14:52:26;;;;;;;19.93;11.90;;;;;;;;;;5080214;28;20218;-77